createdAt,value
2018-04-18T00:01:07.967Z,68.52
2018-04-18T00:04:10.452Z,68.61
2018-04-18T00:07:13.011Z,69.00
2018-04-18T00:10:15.490Z,69.75
2018-04-18T00:13:18.080Z,70.26
2018-04-18T00:16:20.561Z,70.67
2018-04-18T00:19:23.097Z,70.44
2018-04-18T00:22:25.553Z,70.78
2018-04-18T00:25:28.049Z,70.51
2018-04-18T00:28:30.526Z,70.76
2018-04-18T00:31:33.033Z,71.10
2018-04-18T00:34:35.546Z,71.00
2018-04-18T00:37:38.033Z,71.03
2018-04-18T00:40:40.523Z,71.09
2018-04-18T00:43:43.164Z,70.00
2018-04-18T00:46:45.649Z,70.46
2018-04-18T00:49:48.098Z,70.97
2018-04-18T00:52:50.604Z,70.29
2018-04-18T00:55:53.049Z,71.16
2018-04-18T00:58:55.594Z,71.55
2018-04-18T01:01:58.077Z,71.74
2018-04-18T01:05:00.622Z,71.61
2018-04-18T01:08:03.185Z,71.35
2018-04-18T01:11:05.690Z,71.55
2018-04-18T01:14:08.189Z,72.38
2018-04-18T01:17:10.709Z,71.67
2018-04-18T01:20:13.199Z,72.21
2018-04-18T01:23:15.625Z,72.58
2018-04-18T01:26:18.119Z,71.47
2018-04-18T01:29:20.555Z,71.07
2018-04-18T01:32:23.059Z,71.69
2018-04-18T01:35:25.542Z,72.03
2018-04-18T01:38:28.036Z,71.70
2018-04-18T01:41:30.509Z,71.77
2018-04-18T01:44:32.977Z,71.62
2018-04-18T01:47:35.494Z,71.87
2018-04-18T01:50:37.967Z,71.84
2018-04-18T01:53:40.560Z,71.67
2018-04-18T01:56:43.128Z,72.27
2018-04-18T01:59:45.613Z,72.27
2018-04-18T02:02:48.056Z,71.99
2018-04-18T02:05:50.530Z,72.00
2018-04-18T02:08:52.983Z,72.40
2018-04-18T02:11:55.489Z,72.15
2018-04-18T02:14:57.928Z,71.90
2018-04-18T02:18:00.484Z,72.22
2018-04-18T02:21:02.974Z,72.61
2018-04-18T02:24:05.464Z,72.72
2018-04-18T02:27:08.033Z,72.77
2018-04-18T02:30:10.508Z,72.51
2018-04-18T02:33:13.063Z,72.38
2018-04-18T02:36:15.620Z,72.19
2018-04-18T02:39:18.143Z,71.85
2018-04-18T02:42:20.600Z,72.05
2018-04-18T02:45:23.104Z,71.91
2018-04-18T02:48:25.692Z,70.70
2018-04-18T02:51:28.153Z,70.68
2018-04-18T02:54:30.639Z,70.58
2018-04-18T02:57:33.143Z,71.03
2018-04-18T03:00:35.633Z,70.91
2018-04-18T03:03:38.131Z,70.95
2018-04-18T03:06:40.671Z,71.04
2018-04-18T03:09:43.226Z,71.17
2018-04-18T03:12:45.680Z,71.03
2018-04-18T03:15:48.157Z,71.25
2018-04-18T03:18:50.632Z,70.42
2018-04-18T03:21:53.103Z,70.75
2018-04-18T03:24:55.592Z,70.39
2018-04-18T03:27:58.071Z,71.32
2018-04-18T03:31:00.570Z,71.48
2018-04-18T03:34:03.096Z,72.51
2018-04-18T03:37:05.579Z,73.43
2018-04-18T03:40:08.133Z,73.48
2018-04-18T03:43:10.675Z,74.30
2018-04-18T03:46:13.122Z,74.86
2018-04-18T03:49:15.694Z,75.22
2018-04-18T03:52:18.195Z,75.60
2018-04-18T03:55:20.714Z,76.30
2018-04-18T03:58:23.217Z,76.15
2018-04-18T04:01:25.759Z,76.90
2018-04-18T04:04:28.245Z,76.94
2018-04-18T04:07:31.102Z,77.15
2018-04-18T04:10:33.604Z,77.48
2018-04-18T04:13:36.073Z,78.30
2018-04-18T04:16:50.383Z,78.35
2018-04-18T04:20:04.672Z,78.57
2018-04-18T04:23:18.987Z,79.08
2018-04-18T04:26:21.547Z,78.92
2018-04-18T04:29:24.004Z,78.87
2018-04-18T04:32:26.533Z,78.81
2018-04-18T04:35:29.044Z,78.26
2018-04-18T04:38:32.198Z,77.47
2018-04-18T04:41:34.758Z,77.25
2018-04-18T04:44:37.204Z,76.64
2018-04-18T04:47:39.709Z,75.69
2018-04-18T04:50:42.155Z,74.22
2018-04-18T04:53:44.719Z,71.61
2018-04-18T04:56:47.279Z,69.52
2018-04-18T04:59:49.845Z,68.51
2018-04-18T05:02:52.349Z,65.85
2018-04-18T05:05:54.826Z,63.03
2018-04-18T05:08:57.332Z,61.85
2018-04-18T05:11:59.846Z,59.95
2018-04-18T05:15:02.341Z,57.40
2018-04-18T05:18:04.904Z,55.74
2018-04-18T05:21:07.441Z,53.33
2018-04-18T05:24:09.938Z,51.95
2018-04-18T05:27:12.417Z,48.82
2018-04-18T05:30:14.910Z,49.42
2018-04-18T05:33:17.397Z,46.47
2018-04-18T05:36:19.862Z,44.74
2018-04-18T05:39:22.431Z,43.75
2018-04-18T05:42:24.888Z,42.65
2018-04-18T05:45:27.410Z,43.47
2018-04-18T05:48:29.871Z,43.33
2018-04-18T05:51:32.384Z,43.84
2018-04-18T05:54:34.842Z,44.27
2018-04-18T05:57:37.381Z,44.32
2018-04-18T06:00:39.813Z,42.62
2018-04-18T06:03:42.275Z,40.58
2018-04-18T06:06:44.791Z,38.77
2018-04-18T06:09:47.336Z,37.69
2018-04-18T06:12:49.836Z,35.63
2018-04-18T06:15:52.310Z,34.98
2018-04-18T06:18:54.848Z,33.32
2018-04-18T06:21:57.309Z,31.94
2018-04-18T06:24:59.822Z,31.11
2018-04-18T06:28:02.291Z,30.45
2018-04-18T06:31:04.797Z,29.64
2018-04-18T06:34:07.348Z,31.47
2018-04-18T06:37:09.890Z,30.85
2018-04-18T06:40:12.345Z,31.76
2018-04-18T06:43:14.823Z,30.45
2018-04-18T06:46:17.326Z,33.52
2018-04-18T06:49:19.823Z,37.71
2018-04-18T06:52:22.340Z,40.71
2018-04-18T06:55:24.853Z,43.03
2018-04-18T06:58:27.308Z,45.75
2018-04-18T07:01:29.903Z,46.34
2018-04-18T07:04:32.421Z,47.75
2018-04-18T07:07:34.932Z,47.78
2018-04-18T07:10:37.391Z,48.52
2018-04-18T07:13:39.847Z,49.35
2018-04-18T07:16:42.287Z,51.58
2018-04-18T07:19:44.870Z,50.63
2018-04-18T07:22:47.353Z,51.78
2018-04-18T07:25:49.848Z,51.97
2018-04-18T07:28:52.458Z,50.42
2018-04-18T07:31:54.977Z,51.71
2018-04-18T07:34:57.425Z,50.59
2018-04-18T07:37:59.920Z,50.71
2018-04-18T07:41:02.368Z,50.43
2018-04-18T07:44:04.850Z,50.80
2018-04-18T07:47:07.311Z,50.11
2018-04-18T07:50:09.935Z,49.53
2018-04-18T07:53:12.556Z,49.50
2018-04-18T07:56:15.107Z,47.29
2018-04-18T07:59:17.598Z,50.17
2018-04-18T08:02:20.059Z,51.40
2018-04-18T08:05:22.580Z,50.81
2018-04-18T08:08:25.054Z,49.16
2018-04-18T08:11:27.558Z,49.92
2018-04-18T08:14:30.089Z,49.14
2018-04-18T08:17:32.697Z,53.63
2018-04-18T08:20:35.175Z,52.67
2018-04-18T08:23:37.662Z,49.69
2018-04-18T08:26:40.124Z,49.53
2018-04-18T08:29:42.634Z,48.57
2018-04-18T08:32:45.194Z,48.30
2018-04-18T08:35:47.785Z,50.43
2018-04-18T08:38:50.353Z,48.79
2018-04-18T08:41:52.817Z,47.35
2018-04-18T08:44:55.399Z,49.85
2018-04-18T08:47:57.868Z,49.07
2018-04-18T08:51:00.392Z,49.50
2018-04-18T08:54:02.858Z,47.46
2018-04-18T08:57:05.448Z,47.79
2018-04-18T09:00:08.005Z,47.85
2018-04-18T09:03:10.498Z,50.72
2018-04-18T09:06:12.947Z,45.49
2018-04-18T09:09:15.452Z,47.52
2018-04-18T09:12:17.966Z,47.60
2018-04-18T09:15:20.475Z,48.13
2018-04-18T09:18:22.989Z,47.56
2018-04-18T09:21:25.535Z,48.35
2018-04-18T09:24:28.004Z,48.37
2018-04-18T09:27:30.483Z,47.73
2018-04-18T09:30:32.919Z,46.84
2018-04-18T09:33:35.394Z,47.06
2018-04-18T09:36:37.848Z,48.74
2018-04-18T09:39:40.360Z,44.37
2018-04-18T09:42:42.791Z,46.89
2018-04-18T09:45:45.273Z,47.41
2018-04-18T09:48:47.820Z,46.34
2018-04-18T09:51:50.349Z,48.43
2018-04-18T09:54:52.826Z,45.82
2018-04-18T09:57:55.312Z,47.89
2018-04-18T10:00:57.834Z,48.89
2018-04-18T10:04:05.832Z,48.97
2018-04-18T10:07:08.288Z,47.53
2018-04-18T10:10:10.796Z,45.02
2018-04-18T10:13:13.276Z,44.94
2018-04-18T10:16:15.770Z,47.98
2018-04-18T10:19:18.293Z,45.28
2018-04-18T10:22:20.787Z,41.97
2018-04-18T10:25:23.352Z,46.20
2018-04-18T10:28:25.809Z,45.57
2018-04-18T10:31:28.289Z,47.18
2018-04-18T10:34:30.760Z,44.03
2018-04-18T10:37:33.292Z,44.58
2018-04-18T10:40:35.818Z,41.90
2018-04-18T10:43:38.322Z,44.32
2018-04-18T10:46:40.824Z,44.70
2018-04-18T10:49:43.280Z,43.55
2018-04-18T10:52:45.796Z,44.35
2018-04-18T10:55:48.285Z,45.36
2018-04-18T10:58:50.760Z,42.17
2018-04-18T11:01:53.246Z,43.17
2018-04-18T11:04:55.769Z,40.73
2018-04-18T11:07:58.226Z,39.37
2018-04-18T11:11:00.791Z,39.21
2018-04-18T11:14:03.247Z,39.82
2018-04-18T11:17:05.748Z,36.40
2018-04-18T11:20:08.228Z,38.77
2018-04-18T11:23:10.735Z,37.59
2018-04-18T11:26:13.185Z,39.85
2018-04-18T11:29:15.735Z,40.89
2018-04-18T11:32:18.260Z,38.97
2018-04-18T11:35:20.776Z,43.45
2018-04-18T11:38:23.255Z,39.72
2018-04-18T11:41:25.745Z,40.58
2018-04-18T11:44:28.449Z,40.04
2018-04-18T11:47:30.951Z,41.17
2018-04-18T11:50:33.439Z,41.83
2018-04-18T11:53:35.965Z,41.86
2018-04-18T11:56:38.654Z,39.73
2018-04-18T11:59:41.191Z,40.94
2018-04-18T12:02:43.692Z,41.42
2018-04-18T12:05:46.195Z,41.58
2018-04-18T12:08:48.706Z,40.78
2018-04-18T12:11:51.252Z,40.02
2018-04-18T12:14:53.772Z,39.95
2018-04-18T12:17:56.328Z,42.93
2018-04-18T12:20:58.800Z,42.24
2018-04-18T12:24:02.125Z,42.26
2018-04-18T12:27:04.637Z,41.45
2018-04-18T12:30:07.106Z,39.41
2018-04-18T12:33:09.659Z,42.32
2018-04-18T12:36:12.160Z,44.32
2018-04-18T12:39:14.666Z,39.07
2018-04-18T12:42:17.170Z,41.65
2018-04-18T12:45:19.710Z,40.67
2018-04-18T12:48:22.216Z,41.28
2018-04-18T12:51:24.731Z,42.56
2018-04-18T12:54:27.241Z,41.90
2018-04-18T12:57:29.699Z,41.34
2018-04-18T13:00:32.273Z,41.57
2018-04-18T13:03:34.770Z,42.87
2018-04-18T13:06:37.349Z,42.94
2018-04-18T13:09:39.870Z,43.10
2018-04-18T13:12:42.396Z,41.13
2018-04-18T13:15:44.865Z,40.21
2018-04-18T13:18:47.360Z,45.29
2018-04-18T13:21:49.839Z,42.32
2018-04-18T13:24:52.391Z,41.11
2018-04-18T13:27:54.920Z,41.90
2018-04-18T13:30:57.434Z,38.50
2018-04-18T13:33:59.970Z,40.15
2018-04-18T13:37:02.460Z,41.56
2018-04-18T13:40:05.018Z,39.56
2018-04-18T13:43:07.497Z,38.76
2018-04-18T13:46:10.030Z,39.25
2018-04-18T13:49:12.587Z,38.57
2018-04-18T13:52:15.142Z,39.08
2018-04-18T13:55:17.641Z,40.73
2018-04-18T13:58:20.168Z,39.17
2018-04-18T14:01:22.681Z,37.45
2018-04-18T14:04:25.146Z,37.89
2018-04-18T14:07:27.685Z,36.09
2018-04-18T14:10:30.195Z,37.17
2018-04-18T14:13:32.709Z,36.37
2018-04-18T14:16:35.203Z,36.34
2018-04-18T14:19:37.721Z,36.14
2018-04-18T14:22:40.285Z,36.49
2018-04-18T14:25:42.818Z,38.24
2018-04-18T14:28:45.330Z,37.56
2018-04-18T14:31:47.836Z,40.47
2018-04-18T14:34:50.332Z,38.73
2018-04-18T14:37:52.917Z,38.58
2018-04-18T14:40:55.403Z,39.22
2018-04-18T14:43:57.863Z,37.67
2018-04-18T14:47:00.381Z,37.86
2018-04-18T14:50:02.925Z,39.39
2018-04-18T14:53:05.502Z,39.34
2018-04-18T14:56:07.997Z,39.39
2018-04-18T14:59:10.565Z,39.92
2018-04-18T15:02:13.043Z,37.13
2018-04-18T15:05:15.527Z,37.40
2018-04-18T15:08:18.058Z,37.53
2018-04-18T15:11:20.531Z,38.08
2018-04-18T15:14:23.129Z,37.99
2018-04-18T15:17:25.627Z,38.04
2018-04-18T15:20:28.089Z,36.07
2018-04-18T15:23:30.598Z,37.98
2018-04-18T15:26:33.151Z,36.69
2018-04-18T15:29:35.646Z,36.46
2018-04-18T15:32:38.168Z,37.85
2018-04-18T15:35:40.682Z,35.85
2018-04-18T15:38:43.289Z,34.80
2018-04-18T15:41:45.874Z,35.69
2018-04-18T15:44:53.017Z,37.56
2018-04-18T15:47:55.544Z,35.96
2018-04-18T15:50:58.065Z,37.94
2018-04-18T15:54:00.539Z,38.71
2018-04-18T15:57:03.105Z,38.89
2018-04-18T16:00:05.621Z,39.46
2018-04-18T16:03:08.118Z,38.23
2018-04-18T16:06:10.673Z,38.32
2018-04-18T16:09:13.161Z,37.78
2018-04-18T16:12:15.699Z,37.67
2018-04-18T16:15:18.238Z,38.52
2018-04-18T16:18:20.779Z,38.08
2018-04-18T16:21:23.305Z,38.78
2018-04-18T16:24:25.828Z,38.75
2018-04-18T16:27:28.358Z,41.92
2018-04-18T16:30:41.730Z,43.27
2018-04-18T16:33:44.227Z,45.05
2018-04-18T16:36:46.715Z,47.02
2018-04-18T16:39:49.541Z,43.45
2018-04-18T16:42:52.028Z,44.83
2018-04-18T16:45:54.549Z,43.61
2018-04-18T16:48:57.047Z,45.22
2018-04-18T16:51:59.595Z,44.92
2018-04-18T16:55:02.240Z,45.93
2018-04-18T16:58:04.766Z,45.87
2018-04-18T17:01:07.365Z,45.56
2018-04-18T17:04:09.821Z,46.62
2018-04-18T17:07:12.344Z,46.51
2018-04-18T17:10:14.896Z,47.42
2018-04-18T17:13:17.559Z,48.27
2018-04-18T17:16:20.076Z,49.57
2018-04-18T17:19:22.574Z,49.53
2018-04-18T17:22:25.099Z,49.92
2018-04-18T17:25:27.589Z,50.70
2018-04-18T17:28:30.097Z,51.18
2018-04-18T17:31:32.586Z,51.72
2018-04-18T17:34:35.185Z,51.53
2018-04-18T17:37:37.639Z,51.66
2018-04-18T17:40:40.220Z,52.14
2018-04-18T17:43:42.715Z,52.67
2018-04-18T17:46:45.248Z,52.35
2018-04-18T17:49:47.769Z,51.95
2018-04-18T17:52:50.287Z,52.35
2018-04-18T17:55:52.878Z,52.40
2018-04-18T17:58:55.363Z,52.78
2018-04-18T18:01:57.939Z,53.75
2018-04-18T18:05:00.389Z,54.13
2018-04-18T18:08:02.903Z,54.87
2018-04-18T18:11:05.389Z,56.67
2018-04-18T18:14:07.950Z,56.92
2018-04-18T18:17:10.445Z,56.97
2018-04-18T18:20:12.972Z,57.52
2018-04-18T18:23:17.090Z,57.93
2018-04-18T18:26:19.637Z,58.67
2018-04-18T18:29:22.162Z,59.25
2018-04-18T18:32:25.013Z,59.57
2018-04-18T18:35:27.558Z,59.73
2018-04-18T18:38:30.049Z,60.12
2018-04-18T18:41:32.750Z,60.57
2018-04-18T18:44:35.284Z,60.69
2018-04-18T18:47:37.802Z,61.25
2018-04-18T18:50:40.285Z,61.64
2018-04-18T18:53:42.786Z,62.12
2018-04-18T18:56:45.365Z,62.28
2018-04-18T18:59:47.900Z,62.78
2018-04-18T19:02:50.497Z,62.76
2018-04-18T19:05:53.040Z,63.05
2018-04-18T19:08:55.535Z,62.89
2018-04-18T19:11:58.096Z,62.92
2018-04-18T19:15:00.663Z,63.17
2018-04-18T19:18:03.252Z,63.10
2018-04-18T19:21:05.783Z,63.75
2018-04-18T19:24:08.252Z,63.69
2018-04-18T19:27:10.896Z,63.71
2018-04-18T19:30:13.385Z,64.08
2018-04-18T19:33:16.017Z,63.80
2018-04-18T19:36:19.423Z,64.31
2018-04-18T19:39:22.025Z,64.77
2018-04-18T19:42:24.577Z,64.92
2018-04-18T19:45:27.100Z,65.21
2018-04-18T19:48:29.682Z,64.77
2018-04-18T19:51:32.220Z,65.04
2018-04-18T19:54:34.746Z,64.98
2018-04-18T19:57:37.276Z,65.23
2018-04-18T20:00:39.800Z,65.83
2018-04-18T20:03:42.467Z,65.59
2018-04-18T20:06:45.152Z,65.88
2018-04-18T20:09:47.684Z,65.85
2018-04-18T20:12:50.260Z,65.77
2018-04-18T20:15:52.792Z,65.43
2018-04-18T20:18:55.324Z,65.34
2018-04-18T20:21:57.958Z,65.12
2018-04-18T20:25:00.508Z,64.09
2018-04-18T20:28:03.081Z,64.34
2018-04-18T20:31:05.656Z,64.01
2018-04-18T20:34:08.141Z,63.10
2018-04-18T20:37:10.722Z,63.58
2018-04-18T20:40:13.320Z,63.76
2018-04-18T20:43:15.828Z,63.15
2018-04-18T20:46:18.385Z,62.33
2018-04-18T20:49:20.872Z,62.49
2018-04-18T20:52:23.405Z,63.23
2018-04-18T20:55:25.971Z,62.66
2018-04-18T20:58:28.460Z,62.24
2018-04-18T21:01:30.976Z,63.08
2018-04-18T21:04:33.523Z,63.19
2018-04-18T21:07:36.046Z,63.56
2018-04-18T21:10:38.572Z,63.93
2018-04-18T21:13:41.140Z,63.97
2018-04-18T21:16:43.651Z,64.24
2018-04-18T21:19:46.201Z,64.43
2018-04-18T21:22:48.791Z,64.84
2018-04-18T21:25:51.326Z,65.10
2018-04-18T21:28:53.778Z,66.07
2018-04-18T21:31:56.315Z,66.40
2018-04-18T21:34:58.851Z,66.88
2018-04-18T21:38:01.369Z,67.11
2018-04-18T21:41:03.837Z,66.69
2018-04-18T21:44:06.371Z,67.33
2018-04-18T21:47:08.890Z,67.93
2018-04-18T21:50:11.324Z,68.60
2018-04-18T21:53:14.123Z,69.58
2018-04-18T21:56:16.611Z,69.79
2018-04-18T21:59:19.155Z,69.95
2018-04-18T22:02:21.697Z,69.57
2018-04-18T22:05:24.161Z,69.34
2018-04-18T22:08:26.682Z,69.32
2018-04-18T22:11:29.175Z,69.23
2018-04-18T22:14:31.682Z,68.46
2018-04-18T22:17:34.168Z,67.56
2018-04-18T22:20:36.715Z,67.30
2018-04-18T22:23:39.185Z,65.45
2018-04-18T22:26:41.676Z,65.75
2018-04-18T22:29:44.249Z,64.59
2018-04-18T22:32:46.762Z,64.82
2018-04-18T22:35:49.276Z,64.71
2018-04-18T22:38:51.722Z,64.49
2018-04-18T22:41:54.190Z,64.26
2018-04-18T22:44:56.661Z,63.23
2018-04-18T22:47:59.230Z,62.45
2018-04-18T22:51:01.740Z,63.05
2018-04-18T22:54:04.176Z,63.54
2018-04-18T22:57:06.661Z,63.45
2018-04-18T23:00:09.118Z,63.72
2018-04-18T23:03:11.639Z,63.30
2018-04-18T23:06:14.183Z,63.35
2018-04-18T23:09:16.796Z,63.29
2018-04-18T23:12:19.347Z,64.08
2018-04-18T23:15:21.852Z,63.32
2018-04-18T23:18:24.329Z,63.43
2018-04-18T23:21:26.891Z,62.66
2018-04-18T23:24:29.353Z,62.57
2018-04-18T23:27:31.850Z,62.05
2018-04-18T23:30:34.418Z,62.44
2018-04-18T23:33:36.914Z,63.37
2018-04-18T23:36:39.394Z,63.92
2018-04-18T23:39:41.841Z,63.66
2018-04-18T23:42:44.372Z,63.13
2018-04-18T23:45:46.811Z,63.11
2018-04-18T23:48:49.276Z,63.88
2018-04-18T23:51:51.772Z,63.11
2018-04-18T23:54:54.279Z,61.64
2018-04-18T23:57:56.802Z,62.35
